createdAt,value
2023-04-04T04:39:07.024Z,3.13
2023-04-04T04:42:21.554Z,3.10
2023-04-04T04:45:35.877Z,3.07
2023-04-04T04:48:50.498Z,3.09
2023-04-04T04:52:05.246Z,3.00
2023-04-04T04:55:21.220Z,3.34
2023-04-04T04:58:35.568Z,3.20
2023-04-04T05:01:49.959Z,3.37
2023-04-04T05:05:04.520Z,3.53
2023-04-04T05:08:19.154Z,3.57
2023-04-04T05:11:37.619Z,3.63
2023-04-04T05:14:52.362Z,3.62
2023-04-04T05:18:07.270Z,3.81
2023-04-04T05:21:21.940Z,3.93
2023-04-04T05:24:41.883Z,3.81
2023-04-04T05:28:08.589Z,3.98
2023-04-04T05:31:23.637Z,3.88
2023-04-04T05:34:50.929Z,4.29
2023-04-04T05:38:21.028Z,4.11
2023-04-04T05:41:40.445Z,4.53
2023-04-04T05:45:14.242Z,4.55
2023-04-04T05:48:49.712Z,4.61
2023-04-04T05:52:16.005Z,4.36
2023-04-04T05:55:31.769Z,4.52
2023-04-04T05:58:57.020Z,5.06
2023-04-04T06:02:27.192Z,5.28
2023-04-04T06:06:26.955Z,5.75
2023-04-04T06:13:55.957Z,6.03
2023-04-04T06:21:08.995Z,5.58
2023-04-04T06:24:36.268Z,5.97
2023-04-04T06:28:06.863Z,5.50
2023-04-04T06:31:51.284Z,5.83
2023-04-04T06:35:22.239Z,5.83
2023-04-04T06:38:41.792Z,5.18
2023-04-04T06:42:07.737Z,5.97
2023-04-04T06:45:39.295Z,5.23
2023-04-04T06:48:58.693Z,5.59
2023-04-04T06:52:35.053Z,5.47
2023-04-04T06:55:54.817Z,5.63
2023-04-04T06:59:46.426Z,5.54
2023-04-04T07:03:25.953Z,6.12
2023-04-04T07:06:42.532Z,5.81
2023-04-04T07:09:56.865Z,6.28
2023-04-04T07:13:34.895Z,6.19
2023-04-04T07:16:52.381Z,6.29
2023-04-04T07:20:21.390Z,5.74
2023-04-04T07:23:53.223Z,6.73
2023-04-04T07:27:23.875Z,6.80
2023-04-04T07:30:48.412Z,6.31
2023-04-04T07:34:08.845Z,7.11
2023-04-04T07:37:34.057Z,6.41
2023-04-04T07:44:32.116Z,6.09
2023-04-04T07:48:00.371Z,5.78
2023-04-04T07:55:04.045Z,7.77
2023-04-04T07:59:11.752Z,7.39
2023-04-04T08:02:38.709Z,7.51
2023-04-04T08:06:01.713Z,7.14
2023-04-04T08:09:20.127Z,7.30
2023-04-04T08:12:34.496Z,8.62
2023-04-04T08:15:48.886Z,7.57
2023-04-04T08:19:04.208Z,7.64
2023-04-04T08:22:19.967Z,7.95
2023-04-04T08:25:35.335Z,8.58
2023-04-04T08:28:49.629Z,7.66
2023-04-04T08:32:03.959Z,7.55
2023-04-04T08:35:18.737Z,7.92
2023-04-04T08:38:34.494Z,8.28
2023-04-04T08:41:48.780Z,7.79
2023-04-04T08:45:04.406Z,8.15
2023-04-04T08:48:18.635Z,8.03
2023-04-04T08:51:33.189Z,8.03
2023-04-04T08:54:49.182Z,7.51
2023-04-04T08:58:03.412Z,7.99
2023-04-04T09:01:17.588Z,7.66
2023-04-04T09:04:31.756Z,8.16
2023-04-04T09:08:08.855Z,8.16
2023-04-04T09:11:47.940Z,8.16
2023-04-04T09:15:26.208Z,8.62
2023-04-04T09:18:45.952Z,8.27
2023-04-04T09:22:27.084Z,8.15
2023-04-04T09:30:00.048Z,8.24
2023-04-04T09:45:32.549Z,8.09
2023-04-04T09:49:14.942Z,8.34
2023-04-04T09:52:48.759Z,8.96
2023-04-04T09:56:25.352Z,8.62
2023-04-04T10:04:16.428Z,8.70
2023-04-04T10:27:09.857Z,9.08
2023-04-04T10:30:25.460Z,8.83
2023-04-04T10:33:56.269Z,8.70
2023-04-04T10:38:08.881Z,8.51
2023-04-04T10:41:38.765Z,8.99
2023-04-04T10:45:19.338Z,9.47
2023-04-04T10:48:47.412Z,9.71
2023-04-04T10:52:24.862Z,9.70
2023-04-04T10:55:49.332Z,9.81
2023-04-04T10:59:46.386Z,10.84
2023-04-04T11:03:17.963Z,10.50
2023-04-04T11:07:20.124Z,10.64
2023-04-04T11:10:39.556Z,10.36
2023-04-04T11:14:02.924Z,10.52
2023-04-04T11:17:23.390Z,9.66
2023-04-04T11:20:40.691Z,9.83
2023-04-04T11:24:20.038Z,9.87
2023-04-04T11:27:40.346Z,10.17
2023-04-04T11:31:29.405Z,9.83
2023-04-04T11:35:10.895Z,9.76
2023-04-04T11:38:36.634Z,10.22
2023-04-04T11:41:54.260Z,9.97
2023-04-04T11:45:10.897Z,10.37
2023-04-04T11:48:30.078Z,10.09
2023-04-04T11:52:08.167Z,10.34
2023-04-04T11:55:23.294Z,10.19
2023-04-04T11:59:11.624Z,9.70
2023-04-04T12:02:36.921Z,9.92
2023-04-04T12:06:20.924Z,10.00
2023-04-04T12:09:43.087Z,9.94
2023-04-04T12:13:15.243Z,9.45
2023-04-04T12:16:39.587Z,10.80
2023-04-04T12:20:06.264Z,10.43
2023-04-04T12:23:29.599Z,10.35
2023-04-04T12:26:48.690Z,10.40
2023-04-04T12:30:07.580Z,10.28
2023-04-04T12:33:21.952Z,10.72
2023-04-04T12:36:38.488Z,10.47
2023-04-04T12:39:52.835Z,10.40
2023-04-04T12:43:29.450Z,10.44
2023-04-04T12:46:47.830Z,10.73
2023-04-04T12:50:02.269Z,10.84
2023-04-04T12:56:38.971Z,11.04
2023-04-04T12:59:59.854Z,10.67
2023-04-04T13:03:16.520Z,10.39
2023-04-04T13:06:32.318Z,10.55
2023-04-04T13:10:16.672Z,10.18
2023-04-04T13:17:20.562Z,10.35
2023-04-04T13:20:38.292Z,10.25
2023-04-04T13:24:12.465Z,10.19
2023-04-04T13:27:31.684Z,9.82
2023-04-04T13:30:52.044Z,10.47
2023-04-04T13:34:14.574Z,9.98
2023-04-04T13:37:31.408Z,10.11
2023-04-04T13:40:46.055Z,10.36
2023-04-04T13:44:00.303Z,10.14
2023-04-04T13:47:14.574Z,10.37
2023-04-04T13:50:30.526Z,10.06
2023-04-04T13:53:45.519Z,10.25
2023-04-04T13:56:59.869Z,10.65
2023-04-04T14:00:15.411Z,10.33
2023-04-04T14:03:29.729Z,9.92
2023-04-04T14:06:45.530Z,10.10
2023-04-04T14:09:59.863Z,10.12
2023-04-04T14:13:14.476Z,10.08
2023-04-04T14:16:28.779Z,10.03
2023-04-04T14:19:44.266Z,10.14
2023-04-04T14:23:00.093Z,9.70
2023-04-04T14:26:14.480Z,10.33
2023-04-04T14:29:28.983Z,10.45
2023-04-04T14:32:43.327Z,10.13
2023-04-04T14:35:57.590Z,10.07
2023-04-04T14:39:13.328Z,10.13
2023-04-04T14:42:27.727Z,10.20
2023-04-04T14:45:42.251Z,10.06
2023-04-04T14:48:57.117Z,10.17
2023-04-04T14:52:11.481Z,10.28
2023-04-04T14:55:27.275Z,9.86
2023-04-04T14:58:41.717Z,10.00
2023-04-04T15:01:56.133Z,9.51
2023-04-04T15:05:13.352Z,9.89
2023-04-04T15:08:27.735Z,10.15
2023-04-04T15:11:43.396Z,10.45
2023-04-04T15:14:57.656Z,10.12
2023-04-04T15:18:20.652Z,9.78
2023-04-04T15:21:41.563Z,9.55
2023-04-04T15:25:07.183Z,10.07
2023-04-04T15:28:28.362Z,10.02
2023-04-04T15:31:48.090Z,10.11
2023-04-04T15:35:05.682Z,10.03
2023-04-04T15:38:24.856Z,10.31
2023-04-04T15:41:49.095Z,10.35
2023-04-04T15:45:17.074Z,9.70
2023-04-04T15:48:37.228Z,9.84
2023-04-04T15:51:51.512Z,9.95
2023-04-04T15:55:10.995Z,9.94
2023-04-04T15:58:29.336Z,9.45
2023-04-04T16:01:53.078Z,9.75
2023-04-04T16:05:10.053Z,9.86
2023-04-04T16:08:44.880Z,9.50
2023-04-04T16:12:03.536Z,9.41
2023-04-04T16:15:17.778Z,9.43
2023-04-04T16:18:33.635Z,9.19
2023-04-04T16:21:49.618Z,9.16
2023-04-04T16:25:17.130Z,9.25
2023-04-04T16:29:03.701Z,9.13
2023-04-04T16:32:17.953Z,8.99
2023-04-04T16:35:33.649Z,9.25
2023-04-04T16:38:47.953Z,8.74
2023-04-04T16:42:02.607Z,8.73
2023-04-04T16:45:16.842Z,8.87
2023-04-04T16:48:31.216Z,8.45
2023-04-04T16:51:46.944Z,8.21
2023-04-04T16:55:01.639Z,8.40
